Time;durP1;ratioP1;P1;durP2;ratioP2;P2;SDS_P1;SDS_P2;PMS_P1;PMS_P2;Temp;Humidity;BMP_temperature;BMP_pressure;BME280_temperature;BME280_humidity;BME280_pressure;Samples;Min_cycle;Max_cycle;Signal;HPM_P1;HPM_P2
2023/12/14 00:01:29;;;;;;;15.90;3.15;;;;;;;26.51;22.79;99876.72;7422570;19;20003;-94
2023/12/14 00:03:55;;;;;;;5.93;2.00;;;;;;;26.47;22.76;99873.53;7422081;19;19999;-95
2023/12/14 00:06:21;;;;;;;3.92;1.60;;;;;;;26.63;22.62;99880.63;7425695;19;20017;-93
2023/12/14 00:08:47;;;;;;;5.45;2.40;;;;;;;26.59;22.72;99874.56;7413754;19;20021;-94
2023/12/14 00:11:13;;;;;;;0.85;0.70;;;;;;;26.54;23.06;99884.13;7401958;19;20006;-93
2023/12/14 00:13:39;;;;;;;0.60;0.60;;;;;;;26.48;22.77;99886.47;7395795;19;20019;-94
2023/12/14 00:16:07;;;;;;;2.53;1.92;;;;;;;26.69;22.55;99881.13;7393775;19;20017;-94
2023/12/14 00:18:33;;;;;;;1.10;1.05;;;;;;;26.57;22.98;99877.25;7394732;19;20006;-94
2023/12/14 00:20:59;;;;;;;0.70;0.70;;;;;;;26.66;22.96;99872.97;7396634;19;20026;-95
2023/12/14 00:23:26;;;;;;;0.82;0.82;;;;;;;26.63;22.98;99879.84;7393711;19;20019;-94
2023/12/14 00:25:53;;;;;;;2.35;2.08;;;;;;;26.43;22.59;99881.75;7396121;19;20014;-94
2023/12/14 00:28:19;;;;;;;1.25;1.20;;;;;;;26.25;23.08;99880.22;7394843;19;20006;-93
2023/12/14 00:30:45;;;;;;;2.22;1.08;;;;;;;26.27;22.88;99877.53;7395858;19;20010;-93
2023/12/14 00:33:11;;;;;;;1.35;1.35;;;;;;;26.25;22.69;99880.97;7392123;19;20014;-82
2023/12/14 00:35:37;;;;;;;2.85;1.27;;;;;;;26.26;22.76;99884.59;7391370;19;20477;-84
2023/12/14 00:38:03;;;;;;;0.70;0.70;;;;;;;26.29;22.81;99886.28;7392276;19;20069;-85
2023/12/14 00:40:29;;;;;;;0.90;0.88;;;;;;;26.26;23.07;99876.03;7390585;19;20018;-85
2023/12/14 00:42:55;;;;;;;6.55;1.90;;;;;;;26.23;23.00;99874.31;7388350;19;20074;-84
2023/12/14 00:45:22;;;;;;;1.85;1.55;;;;;;;26.35;22.73;99869.66;7390894;19;20013;-84
2023/12/14 00:47:48;;;;;;;0.68;0.68;;;;;;;26.28;23.06;99879.81;7391601;19;20667;-88
2023/12/14 00:50:14;;;;;;;2.20;1.10;;;;;;;26.39;23.22;99875.72;7392002;19;20388;-83
2023/12/14 00:52:40;;;;;;;1.13;0.93;;;;;;;26.49;23.16;99865.13;7388895;19;20033;-82
2023/12/14 00:55:06;;;;;;;4.65;0.85;;;;;;;26.57;23.18;99871.53;7389735;19;20029;-83
2023/12/14 00:57:32;;;;;;;2.75;2.15;;;;;;;26.53;22.59;99865.47;7383780;19;20070;-82
2023/12/14 00:59:58;;;;;;;1.08;0.68;;;;;;;26.43;22.79;99867.47;7390058;19;20010;-82
2023/12/14 01:02:24;;;;;;;7.43;2.63;;;;;;;26.40;22.84;99857.22;7387434;19;20014;-82
2023/12/14 01:04:51;;;;;;;2.85;1.42;;;;;;;26.38;22.87;99859.91;7389173;19;20373;-83
2023/12/14 01:07:17;;;;;;;1.55;1.20;;;;;;;26.41;22.91;99853.03;7388670;19;20070;-83
2023/12/14 01:09:43;;;;;;;1.70;1.23;;;;;;;26.42;22.70;99860.28;7388519;19;20007;-86
2023/12/14 01:12:09;;;;;;;30.42;3.60;;;;;;;26.51;22.76;99859.59;7389412;19;20044;-82
2023/12/14 01:14:35;;;;;;;1.00;1.00;;;;;;;26.49;22.95;99865.13;7390366;19;20022;-82
2023/12/14 01:17:01;;;;;;;1.92;1.00;;;;;;;26.46;22.64;99866.31;7389558;19;20595;-82
2023/12/14 01:19:27;;;;;;;2.90;1.55;;;;;;;26.48;23.15;99866.50;7388907;19;20038;-82
2023/12/14 01:21:55;;;;;;;4.10;1.65;;;;;;;26.42;22.97;99859.50;7389971;19;20016;-82
2023/12/14 01:24:21;;;;;;;1.40;1.15;;;;;;;26.48;22.57;99857.91;7389415;19;20014;-82
2023/12/14 01:26:47;;;;;;;2.13;1.55;;;;;;;26.50;22.62;99849.53;7387670;19;20362;-82
2023/12/14 01:29:13;;;;;;;0.57;0.57;;;;;;;26.64;22.91;99847.09;7388253;19;20022;-82
2023/12/14 01:31:39;;;;;;;2.00;1.27;;;;;;;26.65;22.75;99846.50;7387311;19;20018;-82
2023/12/14 01:34:05;;;;;;;7.10;1.67;;;;;;;26.73;22.92;99844.34;7388689;19;20015;-83
2023/12/14 01:36:31;;;;;;;0.52;0.52;;;;;;;26.77;23.19;99843.91;7388097;19;20019;-83
2023/12/14 01:38:57;;;;;;;1.85;1.38;;;;;;;26.88;22.94;99844.16;7388849;19;20350;-83
2023/12/14 01:41:24;;;;;;;4.18;1.95;;;;;;;26.91;23.08;99845.84;7387855;19;20023;-83
2023/12/14 01:43:50;;;;;;;4.75;2.42;;;;;;;26.94;23.01;99838.94;7390566;19;20092;-82
2023/12/14 01:46:16;;;;;;;4.47;1.33;;;;;;;26.82;22.75;99834.31;7388994;19;20015;-82
2023/12/14 01:48:42;;;;;;;7.90;1.02;;;;;;;26.97;23.08;99839.84;7386012;19;20345;-82
2023/12/14 01:51:09;;;;;;;0.77;0.77;;;;;;;27.07;23.03;99848.50;7387093;19;20011;-82
2023/12/14 01:53:35;;;;;;;1.25;1.25;;;;;;;27.12;22.88;99848.25;7387979;19;20490;-82
2023/12/14 01:56:01;;;;;;;3.50;1.35;;;;;;;27.13;22.77;99843.28;7393213;19;20014;-82
2023/12/14 01:58:27;;;;;;;3.80;1.33;;;;;;;27.17;22.87;99840.75;7395366;19;20024;-83
2023/12/14 02:01:21;;;;;;;0.90;0.90;;;;;;;27.23;22.94;99844.84;7396910;19;20010;-83
2023/12/14 02:03:50;;;;;;;0.35;0.35;;;;;;;27.25;23.34;99861.41;7393787;19;20078;-83
2023/12/14 02:06:16;;;;;;;6.68;1.48;;;;;;;27.36;22.91;99855.19;7395505;19;20007;-83
2023/12/14 02:08:43;;;;;;;3.47;1.35;;;;;;;27.44;22.74;99864.44;7395191;19;20014;-82
2023/12/14 02:11:09;;;;;;;3.20;1.02;;;;;;;27.42;22.86;99867.88;7393963;19;20066;-83
2023/12/14 02:13:35;;;;;;;1.85;1.45;;;;;;;27.41;22.70;99866.38;7393585;19;20346;-83
2023/12/14 02:16:01;;;;;;;1.33;1.13;;;;;;;27.48;23.17;99870.50;7396384;19;20010;-82
2023/12/14 02:18:27;;;;;;;1.40;0.63;;;;;;;27.54;23.13;99870.97;7394201;19;20070;-83
2023/12/14 02:20:54;;;;;;;1.60;0.98;;;;;;;27.59;23.03;99875.69;7394409;19;20014;-83
2023/12/14 02:23:20;;;;;;;1.75;1.25;;;;;;;27.66;22.95;99883.38;7393892;19;19999;-83
2023/12/14 02:25:46;;;;;;;1.65;0.93;;;;;;;27.71;23.01;99873.75;7396149;19;20074;-83
2023/12/14 02:28:12;;;;;;;2.08;1.23;;;;;;;27.75;22.65;99879.81;7394022;19;20011;-83
2023/12/14 02:30:38;;;;;;;10.02;1.92;;;;;;;28.05;22.76;99881.47;7394428;19;20027;-83
2023/12/14 02:33:04;;;;;;;1.75;1.40;;;;;;;27.82;22.72;99884.66;7394143;19;20664;-82
2023/12/14 02:35:30;;;;;;;1.73;1.60;;;;;;;27.47;22.48;99881.16;7393202;19;20007;-83
2023/12/14 02:37:56;;;;;;;1.77;1.23;;;;;;;27.28;22.51;99889.59;7394661;19;20006;-83
2023/12/14 02:40:22;;;;;;;2.10;1.98;;;;;;;27.39;22.98;99894.06;7392019;19;20018;-83
2023/12/14 02:42:49;;;;;;;0.47;0.47;;;;;;;27.54;22.74;99885.28;7395053;19;20072;-83
2023/12/14 02:45:15;;;;;;;3.13;1.45;;;;;;;27.54;22.88;99880.31;7394541;19;20013;-82
2023/12/14 02:47:41;;;;;;;0.98;0.98;;;;;;;27.65;23.12;99879.78;7393164;19;20022;-83
2023/12/14 02:50:08;;;;;;;3.95;1.48;;;;;;;27.63;22.90;99876.75;7393256;19;20003;-83
2023/12/14 02:52:34;;;;;;;1.73;1.13;;;;;;;27.65;23.22;99876.16;7393225;19;20015;-83
2023/12/14 02:55:00;;;;;;;4.13;2.17;;;;;;;27.67;23.09;99876.31;7396342;19;20011;-82
2023/12/14 02:57:26;;;;;;;6.75;1.63;;;;;;;28.17;22.79;99871.72;7393696;19;20039;-83
2023/12/14 02:59:52;;;;;;;1.77;0.95;;;;;;;28.26;22.39;99867.38;7393207;19;20428;-83
2023/12/14 03:02:18;;;;;;;5.57;2.25;;;;;;;28.05;22.98;99859.31;7390781;19;20030;-82
2023/12/14 03:04:44;;;;;;;1.60;0.98;;;;;;;28.20;22.52;99858.28;7394315;19;20010;-83
2023/12/14 03:07:11;;;;;;;0.28;0.28;;;;;;;28.37;22.91;99861.81;7390359;19;20372;-83
2023/12/14 03:09:41;;;;;;;2.75;0.75;;;;;;;28.38;22.78;99857.59;7393341;19;20018;-83
2023/12/14 03:12:07;;;;;;;1.48;1.25;;;;;;;28.38;22.30;99863.31;7393207;19;20021;-83
2023/12/14 03:14:33;;;;;;;7.22;1.08;;;;;;;28.50;22.42;99863.50;7394725;19;20015;-83
2023/12/14 03:16:59;;;;;;;3.38;1.10;;;;;;;28.56;22.50;99843.16;7393954;19;20014;-83
2023/12/14 03:19:26;;;;;;;1.23;0.98;;;;;;;28.57;22.30;99853.25;7393471;19;19998;-83
2023/12/14 03:21:52;;;;;;;1.42;1.33;;;;;;;28.56;22.60;99838.16;7392637;19;20010;-83
2023/12/14 03:24:18;;;;;;;0.47;0.47;;;;;;;28.47;22.78;99839.66;7391512;19;20373;-83
2023/12/14 03:26:44;;;;;;;2.15;1.13;;;;;;;28.27;22.60;99843.84;7392505;19;20070;-83
2023/12/14 03:29:10;;;;;;;2.05;1.70;;;;;;;28.26;22.97;99842.31;7392137;19;20003;-83
2023/12/14 03:31:37;;;;;;;2.42;1.20;;;;;;;28.27;22.79;99838.13;7392679;19;20371;-83
2023/12/14 03:34:03;;;;;;;1.80;1.50;;;;;;;28.30;22.70;99834.06;7394098;19;20010;-83
2023/12/14 03:36:29;;;;;;;1.60;0.90;;;;;;;28.32;22.78;99837.09;7392266;19;20018;-83
2023/12/14 03:38:55;;;;;;;0.98;0.88;;;;;;;28.26;23.06;99828.00;7392291;19;20035;-83
2023/12/14 03:41:21;;;;;;;1.33;1.25;;;;;;;28.32;23.11;99839.19;7392121;19;20039;-83
2023/12/14 03:43:47;;;;;;;4.35;2.20;;;;;;;28.38;22.73;99839.66;7393766;19;20434;-83
2023/12/14 03:46:13;;;;;;;0.50;0.50;;;;;;;28.42;23.03;99829.25;7391339;19;20037;-83
2023/12/14 03:48:40;;;;;;;2.30;1.00;;;;;;;28.46;22.76;99835.28;7391203;19;20045;-82
2023/12/14 03:51:06;;;;;;;0.77;0.63;;;;;;;28.47;22.67;99828.22;7392998;19;20011;-83
2023/12/14 03:53:32;;;;;;;8.63;1.25;;;;;;;28.62;22.57;99823.56;7392299;19;20366;-83
2023/12/14 03:55:58;;;;;;;2.17;2.03;;;;;;;28.63;22.94;99825.09;7391743;19;20016;-83
2023/12/14 03:58:25;;;;;;;4.07;1.25;;;;;;;28.57;23.10;99818.88;7391812;19;20014;-82
2023/12/14 04:00:51;;;;;;;1.00;0.75;;;;;;;28.47;22.97;99833.94;7390987;19;20031;-83
2023/12/14 04:03:17;;;;;;;6.03;2.70;;;;;;;28.50;22.73;99841.31;7392852;19;20438;-81
2023/12/14 04:05:44;;;;;;;0.50;0.50;;;;;;;28.51;22.59;99830.63;7393241;19;20074;-83
2023/12/14 04:08:10;;;;;;;5.43;1.17;;;;;;;28.45;23.09;99839.53;7391195;19;20013;-83
2023/12/14 04:10:36;;;;;;;5.68;1.13;;;;;;;28.44;22.70;99837.25;7391360;19;20014;-83
2023/12/14 04:13:03;;;;;;;2.85;1.20;;;;;;;28.42;22.74;99837.84;7391525;19;20010;-83
2023/12/14 04:15:29;;;;;;;0.95;0.70;;;;;;;28.43;23.08;99842.25;7392413;19;20386;-83
2023/12/14 04:17:55;;;;;;;2.67;1.40;;;;;;;28.40;22.78;99843.44;7392085;19;20031;-83
2023/12/14 04:20:21;;;;;;;2.28;1.45;;;;;;;28.43;22.73;99847.19;7391238;19;20019;-82
2023/12/14 04:22:48;;;;;;;0.70;0.70;;;;;;;28.46;22.99;99841.00;7389456;19;20007;-83
2023/12/14 04:25:14;;;;;;;4.57;1.27;;;;;;;28.37;22.63;99844.63;7389243;19;20066;-82
2023/12/14 04:27:40;;;;;;;0.52;0.52;;;;;;;28.37;23.05;99843.88;7388349;19;20019;-83
2023/12/14 04:30:10;;;;;;;2.55;1.52;;;;;;;28.40;23.07;99843.44;7389002;19;20017;-83
2023/12/14 04:32:37;;;;;;;1.30;0.68;;;;;;;28.45;23.30;99842.38;7388777;19;20013;-83
2023/12/14 04:35:04;;;;;;;2.53;0.95;;;;;;;28.41;22.94;99832.72;7391591;19;20014;-83
2023/12/14 04:37:30;;;;;;;5.03;0.95;;;;;;;28.46;23.10;99835.28;7389460;19;20007;-83
2023/12/14 04:39:57;;;;;;;1.95;0.63;;;;;;;28.33;22.77;99827.13;7390459;19;20003;-83
2023/12/14 04:42:23;;;;;;;6.25;0.77;;;;;;;28.35;23.34;99833.00;7388337;19;20007;-83
2023/12/14 04:44:50;;;;;;;0.60;0.50;;;;;;;28.41;23.43;99830.59;7390333;19;20061;-83
2023/12/14 04:47:16;;;;;;;2.63;1.05;;;;;;;28.43;22.98;99836.50;7387504;19;20006;-83
2023/12/14 04:49:42;;;;;;;1.95;1.85;;;;;;;28.46;23.23;99840.25;7389272;19;20078;-83
2023/12/14 04:52:08;;;;;;;1.35;0.98;;;;;;;28.54;22.85;99847.34;7389982;19;20014;-83
2023/12/14 04:54:37;;;;;;;1.85;1.30;;;;;;;28.69;22.67;99851.31;7390781;19;20431;-83
2023/12/14 04:57:04;;;;;;;0.85;0.85;;;;;;;28.85;22.82;99852.53;7389449;19;20472;-83
2023/12/14 04:59:30;;;;;;;1.75;1.10;;;;;;;28.95;22.98;99833.22;7389127;19;20002;-83
2023/12/14 05:01:56;;;;;;;1.30;1.20;;;;;;;29.06;22.86;99826.88;7390538;19;20014;-84
2023/12/14 05:04:22;;;;;;;10.48;1.63;;;;;;;29.04;22.73;99813.13;7389993;19;20104;-83
2023/12/14 05:06:48;;;;;;;3.05;0.88;;;;;;;29.07;22.60;99834.84;7388712;19;20002;-83
2023/12/14 05:09:14;;;;;;;1.35;0.75;;;;;;;29.11;22.95;99817.19;7390758;19;20018;-84
2023/12/14 05:11:42;;;;;;;1.63;1.52;;;;;;;29.12;23.17;99830.94;7389925;19;20017;-84
2023/12/14 05:14:08;;;;;;;6.97;1.35;;;;;;;29.19;22.89;99823.56;7389001;19;20473;-83
2023/12/14 05:16:34;;;;;;;1.35;1.02;;;;;;;29.31;22.83;99817.91;7389442;19;20002;-84
2023/12/14 05:19:00;;;;;;;0.52;0.40;;;;;;;29.39;22.71;99822.13;7389112;19;20010;-84
2023/12/14 05:21:26;;;;;;;3.63;1.23;;;;;;;29.42;22.98;99823.03;7389750;19;20025;-85
2023/12/14 05:23:53;;;;;;;12.95;1.20;;;;;;;29.30;22.53;99817.19;7390624;19;20018;-84
2023/12/14 05:26:19;;;;;;;0.30;0.30;;;;;;;29.30;23.02;99828.66;7387566;19;20365;-82
2023/12/14 05:28:45;;;;;;;0.68;0.55;;;;;;;29.25;22.59;99829.72;7389047;19;20031;-84
2023/12/14 05:31:11;;;;;;;1.05;0.93;;;;;;;29.19;23.06;99821.41;7390218;19;20021;-83
2023/12/14 05:33:38;;;;;;;3.35;0.85;;;;;;;29.26;23.07;99828.34;7386979;19;20017;-83
2023/12/14 05:36:08;;;;;;;0.65;0.65;;;;;;;29.25;22.77;99832.59;7389702;19;20019;-83
2023/12/14 05:38:35;;;;;;;1.00;0.82;;;;;;;29.31;22.60;99835.13;7388277;19;20002;-83
2023/12/14 05:41:01;;;;;;;3.80;1.23;;;;;;;29.22;23.10;99833.78;7390472;19;20020;-84
2023/12/14 05:43:27;;;;;;;1.50;1.40;;;;;;;29.16;23.07;99841.97;7387344;19;20015;-83
2023/12/14 05:45:53;;;;;;;3.55;0.68;;;;;;;29.19;22.72;99846.50;7386557;19;20045;-83
2023/12/14 05:48:19;;;;;;;0.65;0.55;;;;;;;29.13;23.03;99835.28;7387393;19;20015;-82
2023/12/14 05:50:46;;;;;;;0.50;0.50;;;;;;;29.26;22.98;99839.81;7388708;19;20003;-83
2023/12/14 05:53:12;;;;;;;3.40;2.15;;;;;;;29.24;22.95;99849.06;7389395;19;20010;-84
2023/12/14 05:55:39;;;;;;;0.35;0.35;;;;;;;29.16;23.04;99864.91;7387965;19;20022;-84
2023/12/14 05:58:06;;;;;;;0.73;0.55;;;;;;;29.11;22.98;99858.09;7388364;19;20031;-84
2023/12/14 06:00:34;;;;;;;5.82;1.58;;;;;;;29.09;22.99;99854.31;7388046;19;20070;-84
2023/12/14 06:03:00;;;;;;;0.68;0.68;;;;;;;29.16;23.03;99848.47;7386871;19;20014;-84
2023/12/14 06:05:26;;;;;;;0.32;0.32;;;;;;;29.11;23.40;99843.75;7388459;19;20472;-84
2023/12/14 06:07:53;;;;;;;0.52;0.52;;;;;;;29.16;23.49;99841.97;7386005;19;20402;-84
2023/12/14 06:10:19;;;;;;;1.15;1.05;;;;;;;29.17;23.43;99841.34;7387836;19;20100;-83
2023/12/14 06:12:45;;;;;;;3.92;0.80;;;;;;;29.12;23.10;99835.91;7387748;19;20006;-88
2023/12/14 06:15:11;;;;;;;2.50;0.85;;;;;;;29.26;23.10;99836.22;7387900;19;20022;-84
2023/12/14 06:17:39;;;;;;;0.75;0.75;;;;;;;29.53;22.99;99828.13;7386218;19;20370;-83
2023/12/14 06:20:09;;;;;;;0.47;0.40;;;;;;;29.63;22.92;99826.72;7387449;19;20014;-84
2023/12/14 06:22:38;;;;;;;0.20;0.20;;;;;;;29.59;23.14;99825.69;7386636;19;20010;-84
2023/12/14 06:25:04;;;;;;;1.30;0.65;;;;;;;29.82;22.68;99820.94;7387973;19;20027;-84
2023/12/14 06:27:30;;;;;;;1.00;1.00;;;;;;;29.84;22.66;99826.81;7385197;19;20026;-84
2023/12/14 06:29:57;;;;;;;0.38;0.38;;;;;;;29.68;23.00;99828.53;7386242;19;20018;-84
2023/12/14 06:32:23;;;;;;;0.75;0.75;;;;;;;29.63;22.96;99828.84;7384725;19;20023;-83
2023/12/14 06:34:50;;;;;;;3.35;0.52;;;;;;;29.67;23.08;99829.16;7386203;19;20009;-84
2023/12/14 06:37:16;;;;;;;1.80;1.00;;;;;;;29.75;22.87;99830.50;7385412;19;20011;-84
2023/12/14 06:39:42;;;;;;;0.47;0.47;;;;;;;29.92;23.15;99827.41;7387894;19;20041;-84
2023/12/14 06:42:08;;;;;;;6.80;0.65;;;;;;;29.99;22.79;99829.31;7392436;19;20014;-84
2023/12/14 06:44:34;;;;;;;0.40;0.40;;;;;;;29.99;23.01;99829.31;7393693;19;20653;-84
2023/12/14 06:47:00;;;;;;;6.18;1.27;;;;;;;30.04;23.16;99827.47;7394627;19;20011;-84
2023/12/14 06:49:26;;;;;;;2.20;0.52;;;;;;;30.10;22.77;99827.16;7393581;19;20003;-84
2023/12/14 06:51:53;;;;;;;2.72;0.80;;;;;;;30.23;23.01;99841.00;7394679;19;20047;-84
2023/12/14 06:54:19;;;;;;;0.20;0.20;;;;;;;30.37;22.90;99837.00;7391216;19;20335;-84
2023/12/14 06:56:45;;;;;;;10.70;2.17;;;;;;;30.30;23.09;99835.03;7391535;19;20014;-84
2023/12/14 06:59:11;;;;;;;0.30;0.25;;;;;;;30.31;22.96;99841.56;7395101;19;20022;-85
2023/12/14 07:01:37;;;;;;;1.65;1.38;;;;;;;30.29;23.19;99838.53;7391959;19;20022;-85
2023/12/14 07:04:03;;;;;;;11.40;1.27;;;;;;;30.30;23.05;99840.06;7392891;19;20416;-84
2023/12/14 07:06:30;;;;;;;0.30;0.30;;;;;;;30.24;23.24;99836.75;7391882;19;20006;-85
2023/12/14 07:08:56;;;;;;;8.30;1.60;;;;;;;30.13;23.33;99843.16;7394531;19;20006;-84
2023/12/14 07:11:22;;;;;;;2.28;0.52;;;;;;;30.02;23.46;99840.97;7392615;19;20358;-85
2023/12/14 07:13:48;;;;;;;0.25;0.25;;;;;;;30.12;23.23;99844.53;7394154;19;20009;-85
2023/12/14 07:16:17;;;;;;;0.88;0.45;;;;;;;29.96;23.28;99839.16;7394079;19;20063;-85
2023/12/14 07:18:44;;;;;;;2.50;0.90;;;;;;;29.89;23.53;99842.97;7390960;19;20010;-85
2023/12/14 07:21:10;;;;;;;0.57;0.47;;;;;;;29.88;23.28;99835.75;7393823;19;20011;-85
2023/12/14 07:23:37;;;;;;;1.85;0.75;;;;;;;29.80;23.31;99840.91;7393376;19;20010;-86
2023/12/14 07:26:03;;;;;;;1.45;0.65;;;;;;;29.84;23.35;99846.91;7391962;19;20018;-86
2023/12/14 07:28:29;;;;;;;2.38;0.50;;;;;;;29.72;23.34;99851.78;7391385;19;20006;-85
2023/12/14 07:30:56;;;;;;;1.02;0.80;;;;;;;29.60;23.49;99848.06;7392466;19;20357;-86
2023/12/14 07:33:22;;;;;;;14.18;0.82;;;;;;;29.60;23.57;99844.44;7390429;19;20006;-86
2023/12/14 07:35:48;;;;;;;3.83;0.38;;;;;;;29.60;23.78;99856.69;7394607;19;20082;-85
2023/12/14 07:38:14;;;;;;;1.02;0.88;;;;;;;29.90;23.42;99855.97;7393105;19;20014;-86
2023/12/14 07:40:41;;;;;;;0.52;0.52;;;;;;;30.16;23.08;99859.19;7390554;19;20036;-86
2023/12/14 07:43:07;;;;;;;0.10;0.10;;;;;;;30.12;23.50;99853.16;7392537;19;20038;-86
2023/12/14 07:45:34;;;;;;;0.43;0.43;;;;;;;30.11;23.36;99866.00;7392406;19;20078;-85
2023/12/14 07:48:00;;;;;;;0.20;0.20;;;;;;;30.16;23.14;99856.31;7393093;19;20358;-85
2023/12/14 07:50:26;;;;;;;1.98;1.02;;;;;;;30.26;23.47;99862.75;7395060;19;20021;-85
2023/12/14 07:52:53;;;;;;;1.55;1.17;;;;;;;30.31;23.45;99865.31;7393304;19;20032;-86
2023/12/14 07:55:20;;;;;;;0.43;0.35;;;;;;;30.44;23.45;99866.91;7392753;19;20021;-85
2023/12/14 07:57:46;;;;;;;0.38;0.38;;;;;;;30.50;23.34;99870.19;7394925;19;20011;-86
2023/12/14 08:00:12;;;;;;;1.65;0.82;;;;;;;30.51;23.21;99865.94;7394616;19;20014;-86
2023/12/14 08:02:39;;;;;;;1.95;1.02;;;;;;;30.51;23.33;99865.94;7390413;19;20010;-86
2023/12/14 08:05:05;;;;;;;2.05;0.43;;;;;;;30.51;23.43;99878.22;7390344;19;20030;-85
2023/12/14 08:07:32;;;;;;;0.63;0.63;;;;;;;30.66;23.28;99877.03;7391068;19;20021;-86
2023/12/14 08:09:59;;;;;;;3.58;1.13;;;;;;;30.58;23.24;99885.13;7391498;19;20667;-86
2023/12/14 08:12:26;;;;;;;1.95;0.90;;;;;;;30.59;23.56;99878.00;7393869;19;20070;-86
2023/12/14 08:14:52;;;;;;;0.98;0.88;;;;;;;30.63;23.36;99889.75;7393327;19;20423;-85
2023/12/14 08:17:19;;;;;;;1.65;0.82;;;;;;;30.55;23.26;99889.22;7392963;19;20379;-85
2023/12/14 08:19:45;;;;;;;0.35;0.35;;;;;;;30.56;23.42;99882.84;7394435;19;20412;-86
2023/12/14 08:22:15;;;;;;;0.73;0.73;;;;;;;30.62;23.56;99891.16;7395405;19;20026;-86
2023/12/14 08:24:44;;;;;;;0.50;0.50;;;;;;;30.61;23.65;99892.50;7393614;19;20382;-86
2023/12/14 08:27:10;;;;;;;0.32;0.30;;;;;;;30.60;23.35;99893.88;7392246;19;20014;-86
2023/12/14 08:29:36;;;;;;;0.15;0.15;;;;;;;30.61;23.79;99896.13;7392669;19;20007;-86
2023/12/14 08:32:03;;;;;;;6.32;1.02;;;;;;;30.65;23.29;99893.53;7392802;19;20453;-86
2023/12/14 08:34:29;;;;;;;0.60;0.38;;;;;;;30.68;23.45;99897.31;7388672;19;20346;-86
2023/12/14 08:36:55;;;;;;;0.35;0.35;;;;;;;30.71;23.66;99893.19;7390850;19;20010;-87
2023/12/14 08:39:21;;;;;;;0.60;0.45;;;;;;;30.72;23.32;99897.56;7391255;19;20373;-86
2023/12/14 08:41:48;;;;;;;0.28;0.25;;;;;;;30.66;23.33;99905.78;7390317;19;20010;-86
2023/12/14 08:44:15;;;;;;;0.28;0.25;;;;;;;30.68;23.41;99897.31;7390618;19;20599;-86
2023/12/14 08:46:45;;;;;;;0.70;0.70;;;;;;;30.82;23.48;99900.41;7391417;19;20457;-86
2023/12/14 08:49:13;;;;;;;1.17;1.08;;;;;;;30.95;23.56;99897.00;7391357;19;20019;-86
2023/12/14 08:51:40;;;;;;;2.25;0.35;;;;;;;30.92;23.38;99904.72;7388789;19;20065;-86
2023/12/14 08:54:06;;;;;;;1.00;0.85;;;;;;;30.97;23.29;99900.72;7389281;19;20426;-86
2023/12/14 08:56:32;;;;;;;0.88;0.82;;;;;;;31.00;23.70;99905.25;7390698;19;20402;-86
2023/12/14 08:58:59;;;;;;;1.65;0.57;;;;;;;31.03;23.56;99915.53;7391475;19;20014;-85
2023/12/14 09:01:25;;;;;;;0.25;0.25;;;;;;;31.11;23.50;99913.19;7388520;19;20025;-85
2023/12/14 09:03:51;;;;;;;1.55;1.00;;;;;;;31.31;23.16;99916.66;7387343;19;20011;-86
2023/12/14 09:06:18;;;;;;;0.47;0.47;;;;;;;31.37;23.28;99917.03;7388917;19;20462;-85
2023/12/14 09:08:44;;;;;;;1.30;0.77;;;;;;;31.35;23.06;99922.69;7388629;19;20481;-85
2023/12/14 09:11:11;;;;;;;0.98;0.70;;;;;;;31.41;23.12;99920.97;7390445;19;20061;-86
2023/12/14 09:13:37;;;;;;;0.88;0.77;;;;;;;31.47;23.37;99934.28;7388925;19;29041;-84
2023/12/14 09:16:04;;;;;;;3.33;1.33;;;;;;;31.64;23.34;99928.91;7390717;19;20010;-85
2023/12/14 09:18:30;;;;;;;0.90;0.63;;;;;;;31.54;23.53;99933.28;7387666;19;20007;-85
2023/12/14 09:20:56;;;;;;;0.40;0.40;;;;;;;31.58;23.27;99928.53;7387653;19;20025;-86
2023/12/14 09:23:22;;;;;;;2.15;0.80;;;;;;;31.72;23.56;99926.56;7386914;19;20010;-85
2023/12/14 09:25:49;;;;;;;0.43;0.43;;;;;;;31.74;23.00;99931.69;7390351;19;20007;-85
2023/12/14 09:28:15;;;;;;;0.17;0.17;;;;;;;31.86;23.32;99935.38;7389675;19;20073;-84
2023/12/14 09:30:42;;;;;;;2.17;0.85;;;;;;;31.84;23.19;99940.97;7389306;19;20037;-86
2023/12/14 09:33:08;;;;;;;0.82;0.82;;;;;;;31.75;23.37;99939.72;7390846;19;20010;-85
2023/12/14 09:35:36;;;;;;;2.08;1.35;;;;;;;31.72;23.09;99943.09;7389557;19;20019;-85
2023/12/14 09:38:03;;;;;;;5.88;2.30;;;;;;;31.75;23.40;99941.84;7389126;19;20461;-85
2023/12/14 09:40:30;;;;;;;2.45;1.20;;;;;;;31.59;23.69;99940.81;7386980;19;20017;-85
2023/12/14 09:42:56;;;;;;;7.88;1.70;;;;;;;31.67;23.79;99952.84;7389050;19;20011;-85
2023/12/14 09:45:31;;;;;;;8.40;1.60;;;;;;;31.88;23.48;99949.91;7388756;19;20062;-87
2023/12/14 09:48:00;;;;;;;1.30;0.73;;;;;;;31.86;23.56;99958.41;7387206;19;20331;-86
2023/12/14 09:50:26;;;;;;;4.88;0.85;;;;;;;31.76;23.43;99961.41;7388726;19;19998;-85
2023/12/14 09:52:52;;;;;;;18.30;2.85;;;;;;;31.75;23.29;99964.91;7389340;19;20455;-85
2023/12/14 09:55:18;;;;;;;2.05;1.15;;;;;;;31.67;23.42;99970.13;7388800;19;20014;-85
2023/12/14 09:57:45;;;;;;;0.75;0.73;;;;;;;32.00;23.43;99973.75;7388863;19;20074;-85
2023/12/14 10:00:13;;;;;;;0.90;0.75;;;;;;;32.47;22.86;99986.84;7389630;19;20021;-85
2023/12/14 10:02:40;;;;;;;0.52;0.52;;;;;;;32.48;23.39;99985.47;7387950;19;20074;-85
2023/12/14 10:05:11;;;;;;;4.90;1.60;;;;;;;32.63;23.11;99982.09;7391363;19;20469;-90
2023/12/14 10:07:44;;;;;;;0.75;0.75;;;;;;;32.64;23.31;99983.56;7390748;19;20051;-90
2023/12/14 10:10:14;;;;;;;2.58;1.50;;;;;;;32.57;23.33;99990.34;7399733;19;20070;-89
2023/12/14 10:12:52;;;;;;;5.70;2.03;;;;;;;32.48;23.15;99994.13;7396077;19;20007;-91
2023/12/14 10:15:19;;;;;;;2.33;1.23;;;;;;;32.58;23.77;99991.88;7392028;19;20015;-88
2023/12/14 10:17:50;;;;;;;0.73;0.73;;;;;;;32.76;23.41;100006.66;7395427;19;20015;-85
2023/12/14 10:20:22;;;;;;;2.90;0.85;;;;;;;32.78;23.58;100003.88;7397106;19;20023;-84
2023/12/14 10:22:50;;;;;;;1.30;1.20;;;;;;;32.90;23.91;100002.50;7393741;19;20022;-85
2023/12/14 10:25:19;;;;;;;6.70;1.83;;;;;;;32.85;23.51;100015.16;7397008;19;20018;-85
2023/12/14 10:27:52;;;;;;;1.55;1.35;;;;;;;32.97;23.55;100011.50;7393259;19;20010;-85
2023/12/14 10:30:19;;;;;;;0.70;0.60;;;;;;;33.24;23.54;100008.84;7393176;19;20021;-85
2023/12/14 10:32:48;;;;;;;1.65;1.17;;;;;;;33.26;23.67;100012.63;7395529;19;20045;-85
2023/12/14 10:35:16;;;;;;;0.82;0.82;;;;;;;33.35;23.80;100008.81;7394760;19;20052;-85
2023/12/14 10:37:43;;;;;;;2.80;1.05;;;;;;;33.30;23.64;100012.84;7392835;19;20944;-85
2023/12/14 10:40:12;;;;;;;2.80;0.50;;;;;;;33.28;24.04;100009.84;7394016;19;20427;-85
2023/12/14 10:42:42;;;;;;;2.95;1.48;;;;;;;33.18;23.70;100022.94;7394820;19;20006;-85
2023/12/14 10:45:12;;;;;;;0.88;0.32;;;;;;;33.09;23.87;100018.06;7393732;19;20014;-85
2023/12/14 10:47:43;;;;;;;4.80;1.23;;;;;;;33.45;24.00;100006.53;7390256;19;20433;-85
2023/12/14 10:50:11;;;;;;;0.10;0.10;;;;;;;33.67;23.38;99998.41;7393426;19;20014;-85
2023/12/14 10:52:39;;;;;;;3.83;1.33;;;;;;;33.60;23.62;99999.44;7392400;19;20030;-86
2023/12/14 10:55:10;;;;;;;3.80;1.40;;;;;;;33.52;24.19;100008.41;7394090;19;20370;-85
2023/12/14 10:57:36;;;;;;;6.35;0.70;;;;;;;33.67;23.85;100004.19;7393281;19;20002;-86
2023/12/14 11:00:08;;;;;;;0.55;0.32;;;;;;;33.47;24.06;100011.66;7394178;19;20002;-87
2023/12/14 11:02:41;;;;;;;6.32;1.25;;;;;;;33.34;23.94;100018.88;7393402;19;20420;-84
2023/12/14 11:05:09;;;;;;;5.28;1.05;;;;;;;33.38;24.17;100021.97;7393361;19;20458;-85
2023/12/14 11:07:54;;;;;;;2.70;1.02;;;;;;;33.38;24.16;100035.66;7390155;19;20006;-86
2023/12/14 11:10:35;;;;;;;5.28;0.73;;;;;;;33.41;24.37;100034.41;7394594;19;20018;-85
2023/12/14 11:13:06;;;;;;;0.90;0.90;;;;;;;33.44;24.14;100033.16;7393390;19;20034;-85
2023/12/14 11:15:35;;;;;;;1.13;0.68;;;;;;;33.45;24.69;100028.88;7393356;19;20011;-85
2023/12/14 11:18:08;;;;;;;0.32;0.32;;;;;;;33.47;24.46;100031.88;7392736;19;19998;-85
2023/12/14 11:20:46;;;;;;;2.40;0.65;;;;;;;33.25;24.49;100024.78;7393849;19;20007;-85
2023/12/14 11:23:19;;;;;;;3.72;0.95;;;;;;;33.36;24.52;100026.88;7392195;19;20388;-85
2023/12/14 11:25:51;;;;;;;1.83;0.93;;;;;;;33.46;24.40;100028.22;7392248;19;20015;-85
2023/12/14 11:28:17;;;;;;;1.50;1.40;;;;;;;33.51;24.51;100035.03;7389888;19;20002;-85
2023/12/14 11:30:44;;;;;;;1.90;0.70;;;;;;;33.77;24.58;100030.78;7391336;19;20010;-85